createdAt,value
2019-03-21T00:00:49.500Z,7.20
2019-03-21T00:03:22.970Z,7.20
2019-03-21T00:05:56.194Z,7.20
2019-03-21T00:08:29.443Z,7.20
2019-03-21T00:11:38.614Z,7.20
2019-03-21T00:14:26.702Z,7.20
2019-03-21T00:16:59.964Z,7.20
2019-03-21T00:19:33.166Z,7.10
2019-03-21T00:22:06.391Z,7.10
2019-03-21T00:24:39.584Z,7.10
2019-03-21T00:27:12.820Z,7.10
2019-03-21T00:29:46.027Z,7.10
2019-03-21T00:32:19.226Z,7.00
2019-03-21T00:34:52.422Z,7.00
2019-03-21T00:37:25.624Z,7.00
2019-03-21T00:39:58.807Z,6.90
2019-03-21T00:42:32.104Z,6.90
2019-03-21T00:45:05.879Z,6.90
2019-03-21T00:47:39.092Z,6.80
2019-03-21T00:50:14.213Z,6.80
2019-03-21T00:52:49.225Z,6.80
2019-03-21T00:55:22.773Z,6.80
2019-03-21T00:57:58.452Z,6.70
2019-03-21T01:00:34.028Z,6.70
2019-03-21T01:03:08.023Z,6.70
2019-03-21T01:05:41.532Z,6.70
2019-03-21T01:08:14.727Z,6.70
2019-03-21T01:10:48.827Z,6.70
2019-03-21T01:13:23.243Z,6.60
2019-03-21T01:15:56.427Z,6.60
2019-03-21T01:18:29.615Z,6.60
2019-03-21T01:21:02.815Z,6.50
2019-03-21T01:23:36.003Z,6.50
2019-03-21T01:26:09.209Z,6.50
2019-03-21T01:28:42.399Z,6.50
2019-03-21T01:31:15.595Z,6.50
2019-03-21T01:33:48.766Z,6.50
2019-03-21T01:36:22.891Z,6.40
2019-03-21T01:38:56.071Z,6.40
2019-03-21T01:41:29.265Z,6.40
2019-03-21T01:44:02.445Z,6.40
2019-03-21T01:46:36.440Z,6.30
2019-03-21T01:49:09.621Z,6.30
2019-03-21T01:51:42.830Z,6.30
2019-03-21T01:54:16.027Z,6.30
2019-03-21T01:56:49.215Z,6.20
2019-03-21T01:59:22.400Z,6.20
2019-03-21T02:01:55.588Z,6.20
2019-03-21T02:04:28.785Z,6.20
2019-03-21T02:07:01.987Z,6.20
2019-03-21T02:09:35.176Z,6.20
2019-03-21T02:12:08.363Z,6.20
2019-03-21T02:14:51.753Z,6.20
2019-03-21T02:17:16.487Z,6.20
2019-03-21T02:19:49.679Z,6.20
2019-03-21T02:22:22.871Z,6.20
2019-03-21T02:24:56.056Z,6.30
2019-03-21T02:27:29.248Z,6.30
2019-03-21T02:30:02.439Z,5.70
2019-03-21T02:32:35.650Z,6.30
2019-03-21T02:35:09.676Z,6.30
2019-03-21T02:37:42.870Z,6.30
2019-03-21T02:40:17.465Z,6.20
2019-03-21T02:42:50.666Z,6.20
2019-03-21T02:45:23.855Z,6.20
2019-03-21T02:47:57.148Z,6.20
2019-03-21T02:50:31.560Z,6.10
2019-03-21T02:53:04.814Z,6.10
2019-03-21T02:55:38.010Z,6.10
2019-03-21T02:58:11.187Z,6.10
2019-03-21T03:00:44.410Z,6.10
2019-03-21T03:03:17.681Z,6.10
2019-03-21T03:05:50.880Z,6.10
2019-03-21T03:08:24.105Z,6.10
2019-03-21T03:10:57.288Z,6.10
2019-03-21T03:13:30.482Z,6.10
2019-03-21T03:16:03.746Z,6.00
2019-03-21T03:18:36.937Z,6.00
2019-03-21T03:21:10.115Z,6.00
2019-03-21T03:23:43.308Z,6.00
2019-03-21T03:26:16.614Z,6.00
2019-03-21T03:28:49.805Z,6.00
2019-03-21T03:31:22.984Z,5.90
2019-03-21T03:33:56.185Z,5.90
2019-03-21T03:36:29.364Z,5.80
2019-03-21T03:39:02.820Z,5.80
2019-03-21T03:41:36.049Z,5.80
2019-03-21T03:44:09.256Z,5.70
2019-03-21T03:46:42.440Z,5.70
2019-03-21T03:49:15.657Z,5.70
2019-03-21T03:51:48.901Z,5.70
2019-03-21T03:54:22.108Z,5.70
2019-03-21T03:56:55.280Z,5.70
2019-03-21T03:59:28.487Z,5.60
2019-03-21T04:02:01.691Z,5.60
2019-03-21T04:07:07.703Z,5.60
2019-03-21T04:19:53.971Z,5.40
2019-03-21T04:55:52.391Z,5.50
2019-03-21T04:58:25.581Z,5.50
2019-03-21T05:00:59.973Z,5.50
2019-03-21T05:03:33.156Z,5.50
2019-03-21T05:06:06.385Z,5.50
2019-03-21T05:08:39.675Z,5.40
2019-03-21T05:11:12.907Z,5.40
2019-03-21T05:13:46.110Z,5.40
2019-03-21T05:16:19.291Z,5.40
2019-03-21T05:18:53.203Z,5.40
2019-03-21T05:21:26.396Z,5.40
2019-03-21T05:23:59.571Z,5.30
2019-03-21T05:26:32.768Z,5.30
2019-03-21T05:29:05.964Z,5.30
2019-03-21T05:31:39.159Z,5.30
2019-03-21T05:34:12.343Z,5.30
2019-03-21T05:36:45.539Z,5.30
2019-03-21T05:41:51.476Z,5.30
2019-03-21T05:44:31.459Z,5.30
2019-03-21T05:47:04.686Z,5.30
2019-03-21T05:49:37.872Z,5.40
2019-03-21T05:52:11.528Z,5.40
2019-03-21T05:54:44.697Z,5.40
2019-03-21T05:57:17.903Z,5.40
2019-03-21T05:59:51.096Z,5.50
2019-03-21T06:02:24.296Z,5.50
2019-03-21T06:04:58.485Z,5.50
2019-03-21T06:07:42.279Z,5.60
2019-03-21T06:10:16.391Z,5.60
2019-03-21T06:12:49.840Z,5.70
2019-03-21T06:15:25.512Z,5.70
2019-03-21T06:18:32.103Z,5.80
2019-03-21T06:21:32.014Z,5.80
2019-03-21T06:24:32.946Z,5.90
2019-03-21T06:27:28.260Z,6.10
2019-03-21T06:30:01.458Z,6.40
2019-03-21T06:32:34.652Z,6.80
2019-03-21T06:35:20.317Z,7.40
2019-03-21T06:37:53.607Z,8.10
2019-03-21T06:40:27.128Z,8.50
2019-03-21T06:43:00.340Z,9.20
2019-03-21T06:45:33.558Z,10.00
2019-03-21T06:48:06.764Z,10.80
2019-03-21T06:50:39.967Z,11.70
2019-03-21T06:53:13.159Z,12.30
2019-03-21T06:55:46.383Z,12.70
2019-03-21T06:58:19.647Z,13.10
2019-03-21T07:00:52.880Z,13.40
2019-03-21T07:03:26.075Z,13.80
2019-03-21T07:05:59.293Z,14.10
2019-03-21T07:08:32.485Z,14.20
2019-03-21T07:11:05.728Z,14.30
2019-03-21T07:13:39.003Z,14.10
2019-03-21T07:16:12.231Z,14.00
2019-03-21T07:18:45.424Z,13.90
2019-03-21T07:21:18.674Z,14.30
2019-03-21T07:23:51.906Z,14.50
2019-03-21T07:26:25.112Z,14.80
2019-03-21T07:28:58.331Z,15.00
2019-03-21T07:31:31.566Z,15.20
2019-03-21T07:34:04.784Z,15.50
2019-03-21T07:36:38.075Z,15.50
2019-03-21T07:39:11.289Z,15.50
2019-03-21T07:41:44.522Z,15.30
2019-03-21T07:44:17.731Z,15.20
2019-03-21T07:46:51.055Z,15.60
2019-03-21T07:49:24.244Z,15.70
2019-03-21T07:51:57.461Z,15.90
2019-03-21T07:54:30.661Z,15.90
2019-03-21T07:57:03.863Z,16.00
2019-03-21T07:59:37.057Z,15.90
2019-03-21T08:02:10.267Z,15.60
2019-03-21T08:04:43.486Z,15.00
2019-03-21T08:07:16.823Z,14.60
2019-03-21T08:09:50.906Z,14.00
2019-03-21T08:12:24.187Z,13.30
2019-03-21T08:14:57.367Z,11.90
2019-03-21T08:17:30.652Z,11.50
2019-03-21T08:20:05.277Z,11.00
2019-03-21T08:22:38.479Z,11.00
2019-03-21T08:25:11.737Z,10.60
2019-03-21T08:27:44.935Z,10.50
2019-03-21T08:30:30.132Z,10.50
2019-03-21T08:33:03.394Z,10.40
2019-03-21T08:35:36.581Z,10.40
2019-03-21T08:38:09.784Z,10.50
2019-03-21T08:40:42.994Z,10.50
2019-03-21T08:43:16.207Z,10.60
2019-03-21T08:45:49.400Z,10.50
2019-03-21T08:48:22.596Z,10.50
2019-03-21T08:51:07.351Z,10.60
2019-03-21T08:53:30.726Z,10.70
2019-03-21T08:56:03.924Z,10.80
2019-03-21T08:58:37.175Z,11.00
2019-03-21T09:01:10.366Z,11.10
2019-03-21T09:03:43.565Z,11.10
2019-03-21T09:06:16.781Z,11.10
2019-03-21T09:08:49.977Z,11.20
2019-03-21T09:11:23.172Z,11.30
2019-03-21T09:13:56.358Z,11.30
2019-03-21T09:16:29.577Z,11.30
2019-03-21T09:19:02.757Z,11.40
2019-03-21T09:21:36.092Z,11.40
2019-03-21T09:24:09.279Z,11.50
2019-03-21T09:26:42.487Z,11.60
2019-03-21T09:29:15.677Z,11.60
2019-03-21T09:31:48.892Z,11.70
2019-03-21T09:34:22.064Z,11.80
2019-03-21T09:36:55.259Z,11.90
2019-03-21T09:39:28.443Z,12.00
2019-03-21T09:42:01.683Z,12.00
2019-03-21T09:44:34.856Z,12.00
2019-03-21T09:47:08.079Z,12.10
2019-03-21T09:49:41.311Z,12.10
2019-03-21T09:52:14.567Z,12.10
2019-03-21T09:54:48.855Z,12.10
2019-03-21T09:57:22.056Z,12.20
2019-03-21T09:59:55.256Z,12.20
2019-03-21T10:02:28.448Z,12.20
2019-03-21T10:05:01.650Z,12.30
2019-03-21T10:07:34.846Z,12.30
2019-03-21T10:10:09.027Z,12.40
2019-03-21T10:12:42.280Z,12.50
2019-03-21T10:15:15.480Z,12.60
2019-03-21T10:17:48.695Z,12.70
2019-03-21T10:20:21.884Z,12.80
2019-03-21T10:22:55.151Z,12.80
2019-03-21T10:25:28.341Z,12.80
2019-03-21T10:28:01.921Z,12.90
2019-03-21T10:30:39.548Z,12.90
2019-03-21T10:33:13.556Z,13.00
2019-03-21T10:35:48.260Z,13.10
2019-03-21T10:38:21.463Z,13.20
2019-03-21T10:40:54.724Z,13.20
2019-03-21T10:43:27.963Z,13.20
2019-03-21T10:46:01.156Z,13.20
2019-03-21T10:48:36.283Z,13.30
2019-03-21T10:51:09.491Z,13.30
2019-03-21T10:53:42.736Z,13.30
2019-03-21T10:56:15.922Z,13.40
2019-03-21T10:58:49.171Z,13.40
2019-03-21T11:01:22.348Z,13.40
2019-03-21T11:03:55.591Z,13.50
2019-03-21T11:06:28.791Z,13.60
2019-03-21T11:09:02.032Z,13.60
2019-03-21T11:11:35.268Z,13.70
2019-03-21T11:14:08.472Z,13.70
2019-03-21T11:16:41.762Z,13.80
2019-03-21T11:19:14.992Z,13.90
2019-03-21T11:21:48.214Z,14.00
2019-03-21T11:24:21.403Z,14.00
2019-03-21T11:26:54.588Z,14.00
2019-03-21T11:29:27.855Z,14.00
2019-03-21T11:32:01.089Z,13.90
2019-03-21T11:34:34.345Z,14.00
2019-03-21T11:37:07.551Z,14.00
2019-03-21T11:39:40.771Z,14.00
2019-03-21T11:42:14.262Z,14.00
2019-03-21T11:44:47.472Z,14.10
2019-03-21T11:47:20.660Z,14.10
2019-03-21T11:49:53.869Z,14.10
2019-03-21T11:52:27.092Z,14.20
2019-03-21T11:55:00.460Z,14.20
2019-03-21T11:57:33.788Z,14.20
2019-03-21T12:00:07.027Z,14.20
2019-03-21T12:02:40.211Z,14.10
2019-03-21T12:05:13.542Z,14.10
2019-03-21T12:07:46.766Z,14.10
2019-03-21T12:10:19.992Z,14.10
2019-03-21T12:12:53.192Z,14.10
2019-03-21T12:15:26.440Z,14.10
2019-03-21T12:17:59.693Z,14.10
2019-03-21T12:20:35.850Z,14.20
2019-03-21T12:23:09.101Z,14.20
2019-03-21T12:25:42.335Z,14.20
2019-03-21T12:28:15.637Z,14.30
2019-03-21T12:30:48.844Z,14.40
2019-03-21T12:33:22.043Z,14.40
2019-03-21T12:35:55.363Z,14.50
2019-03-21T12:38:28.589Z,14.60
2019-03-21T12:41:01.811Z,14.60
2019-03-21T12:43:34.998Z,14.70
2019-03-21T12:46:08.355Z,14.50
2019-03-21T12:48:41.567Z,14.50
2019-03-21T12:51:14.859Z,14.60
2019-03-21T12:53:49.304Z,14.60
2019-03-21T12:56:22.519Z,14.60
2019-03-21T12:58:55.783Z,14.70
2019-03-21T13:01:29.112Z,14.70
2019-03-21T13:04:02.297Z,14.70
2019-03-21T13:06:35.495Z,14.70
2019-03-21T13:09:08.811Z,14.80
2019-03-21T13:11:42.077Z,14.80
2019-03-21T13:14:15.269Z,14.80
2019-03-21T13:16:48.456Z,14.80
2019-03-21T13:19:21.641Z,14.80
2019-03-21T13:21:54.825Z,14.80
2019-03-21T13:24:28.025Z,14.80
2019-03-21T13:27:01.247Z,14.80
2019-03-21T13:29:34.486Z,14.80
2019-03-21T13:32:07.779Z,14.80
2019-03-21T13:34:40.971Z,14.70
2019-03-21T13:37:14.188Z,14.80
2019-03-21T13:39:47.391Z,14.80
2019-03-21T13:42:20.636Z,14.80
2019-03-21T13:44:53.815Z,14.80
2019-03-21T13:47:27.045Z,14.80
2019-03-21T13:50:00.338Z,14.80
2019-03-21T13:52:33.635Z,14.80
2019-03-21T13:55:06.996Z,14.90
2019-03-21T13:57:40.210Z,14.90
2019-03-21T14:00:15.974Z,15.00
2019-03-21T14:02:49.201Z,15.00
2019-03-21T14:05:22.509Z,15.00
2019-03-21T14:07:55.709Z,15.00
2019-03-21T14:10:28.927Z,15.10
2019-03-21T14:13:02.126Z,15.10
2019-03-21T14:15:35.335Z,15.20
2019-03-21T14:18:08.560Z,15.30
2019-03-21T14:20:41.768Z,15.30
2019-03-21T14:23:17.210Z,15.30
2019-03-21T14:25:49.955Z,15.30
2019-03-21T14:28:23.171Z,15.30
2019-03-21T14:30:56.484Z,15.40
2019-03-21T14:33:29.706Z,15.40
2019-03-21T14:36:03.007Z,15.40
2019-03-21T14:38:36.220Z,15.40
2019-03-21T14:41:10.804Z,15.40
2019-03-21T14:43:44.003Z,15.40
2019-03-21T14:46:17.198Z,15.40
2019-03-21T14:48:50.387Z,15.40
2019-03-21T14:51:27.309Z,15.40
2019-03-21T14:54:00.933Z,15.30
2019-03-21T14:56:34.139Z,15.30
2019-03-21T14:59:07.344Z,15.30
2019-03-21T15:01:40.880Z,15.40
2019-03-21T15:04:14.237Z,15.40
2019-03-21T15:06:47.431Z,15.40
2019-03-21T15:09:20.643Z,15.50
2019-03-21T15:11:53.921Z,15.50
2019-03-21T15:14:27.637Z,15.50
2019-03-21T15:17:00.868Z,15.50
2019-03-21T15:19:34.162Z,15.50
2019-03-21T15:22:07.350Z,15.50
2019-03-21T15:24:40.631Z,15.50
2019-03-21T15:27:13.801Z,15.50
2019-03-21T15:29:47.072Z,15.40
2019-03-21T15:32:20.283Z,15.40
2019-03-21T15:34:53.484Z,15.40
2019-03-21T15:37:26.636Z,15.40
2019-03-21T15:39:59.811Z,15.40
2019-03-21T15:42:32.988Z,15.40
2019-03-21T15:45:21.598Z,15.40
2019-03-21T15:47:43.252Z,15.40
2019-03-21T15:50:27.567Z,15.40
2019-03-21T15:53:00.739Z,15.40
2019-03-21T15:55:33.983Z,15.40
2019-03-21T15:58:07.154Z,15.40
2019-03-21T16:00:40.835Z,15.40
2019-03-21T16:03:14.183Z,15.40
2019-03-21T16:05:47.415Z,15.40
2019-03-21T16:08:20.596Z,15.40
2019-03-21T16:10:53.762Z,15.30
2019-03-21T16:13:28.019Z,15.30
2019-03-21T16:16:01.199Z,15.40
2019-03-21T16:18:34.377Z,15.30
2019-03-21T16:21:07.544Z,15.30
2019-03-21T16:23:40.994Z,15.30
2019-03-21T16:26:14.248Z,15.30
2019-03-21T16:28:47.412Z,15.30
2019-03-21T16:31:20.668Z,15.20
2019-03-21T16:33:53.857Z,15.20
2019-03-21T16:36:27.061Z,15.20
2019-03-21T16:39:00.231Z,15.20
2019-03-21T16:41:33.427Z,15.20
2019-03-21T16:44:06.581Z,15.30
2019-03-21T16:46:39.766Z,15.20
2019-03-21T16:49:12.949Z,15.20
2019-03-21T16:51:46.123Z,15.20
2019-03-21T16:54:19.290Z,15.10
2019-03-21T16:56:52.465Z,15.10
2019-03-21T16:59:25.627Z,15.10
2019-03-21T17:01:58.852Z,15.10
2019-03-21T17:04:32.011Z,15.10
2019-03-21T17:07:05.196Z,15.10
2019-03-21T17:09:38.355Z,15.00
2019-03-21T17:12:11.771Z,15.00
2019-03-21T17:14:45.021Z,15.00
2019-03-21T17:17:19.672Z,14.90
2019-03-21T17:19:52.869Z,14.90
2019-03-21T17:22:26.087Z,14.80
2019-03-21T17:24:59.329Z,14.80
2019-03-21T17:27:32.624Z,14.80
2019-03-21T17:30:06.267Z,14.70
2019-03-21T17:32:39.519Z,14.70
2019-03-21T17:35:12.708Z,14.70
2019-03-21T17:37:48.784Z,14.70
2019-03-21T17:40:21.964Z,14.60
2019-03-21T17:42:56.119Z,14.50
2019-03-21T17:45:29.311Z,14.40
2019-03-21T17:48:02.533Z,14.40
2019-03-21T17:50:35.702Z,14.30
2019-03-21T17:53:08.976Z,14.30
2019-03-21T17:55:42.239Z,14.20
2019-03-21T17:58:15.465Z,14.20
2019-03-21T18:00:48.680Z,14.10
2019-03-21T18:03:21.877Z,14.00
2019-03-21T18:05:55.302Z,13.90
2019-03-21T18:08:28.632Z,13.90
2019-03-21T18:11:01.907Z,13.80
2019-03-21T18:13:35.112Z,13.70
2019-03-21T18:16:08.823Z,13.60
2019-03-21T18:18:42.059Z,13.50
2019-03-21T18:21:18.362Z,13.40
2019-03-21T18:23:51.551Z,13.40
2019-03-21T18:26:25.962Z,13.30
2019-03-21T18:28:59.178Z,13.30
2019-03-21T18:31:32.362Z,13.20
2019-03-21T18:34:05.714Z,13.10
2019-03-21T18:36:38.930Z,13.00
2019-03-21T18:39:14.230Z,13.00
2019-03-21T18:41:47.877Z,13.00
2019-03-21T18:44:23.824Z,12.90
2019-03-21T18:46:57.007Z,12.90
2019-03-21T18:49:31.911Z,12.80
2019-03-21T18:52:05.196Z,12.70
2019-03-21T18:54:38.390Z,12.70
2019-03-21T18:57:11.687Z,12.60
2019-03-21T18:59:44.983Z,12.60
2019-03-21T19:02:19.622Z,12.50
2019-03-21T19:04:53.185Z,12.50
2019-03-21T19:07:26.638Z,12.50
2019-03-21T19:10:01.025Z,12.40
2019-03-21T19:12:34.355Z,12.40
2019-03-21T19:15:08.494Z,12.30
2019-03-21T19:17:41.699Z,12.30
2019-03-21T19:20:15.905Z,12.20
2019-03-21T19:22:49.229Z,12.20
2019-03-21T19:25:22.752Z,12.10
2019-03-21T19:27:56.128Z,12.00
2019-03-21T19:30:29.510Z,12.00
2019-03-21T19:33:02.819Z,11.90
2019-03-21T19:35:36.315Z,11.90
2019-03-21T19:38:09.568Z,11.90
2019-03-21T19:40:43.062Z,11.90
2019-03-21T19:43:16.453Z,11.90
2019-03-21T19:45:49.939Z,11.90
2019-03-21T19:48:23.216Z,11.90
2019-03-21T19:50:56.704Z,11.90
2019-03-21T19:53:30.064Z,11.90
2019-03-21T19:56:08.491Z,11.90
2019-03-21T19:58:38.371Z,11.90
2019-03-21T20:01:11.950Z,11.90
2019-03-21T20:03:45.359Z,11.90
2019-03-21T20:06:18.843Z,11.80
2019-03-21T20:08:52.105Z,11.80
2019-03-21T20:11:25.518Z,11.80
2019-03-21T20:14:00.179Z,11.70
2019-03-21T20:16:33.643Z,11.70
2019-03-21T20:19:06.934Z,11.60
2019-03-21T20:21:47.837Z,11.70
2019-03-21T20:24:17.111Z,11.70
2019-03-21T20:26:50.387Z,11.70
2019-03-21T20:29:26.046Z,11.70
2019-03-21T20:32:00.646Z,11.70
2019-03-21T20:34:33.947Z,11.70
2019-03-21T20:37:07.163Z,11.60
2019-03-21T20:39:40.375Z,11.60
2019-03-21T20:42:13.894Z,11.60
2019-03-21T20:44:47.081Z,11.40
2019-03-21T20:47:20.411Z,11.40
2019-03-21T20:49:53.711Z,11.30
2019-03-21T20:52:26.916Z,11.20
2019-03-21T20:55:00.078Z,11.20
2019-03-21T20:57:33.265Z,11.10
2019-03-21T21:00:07.729Z,11.10
2019-03-21T21:02:40.923Z,11.10
2019-03-21T21:05:14.110Z,11.00
2019-03-21T21:07:47.315Z,11.00
2019-03-21T21:10:21.208Z,11.00
2019-03-21T21:12:54.415Z,10.90
2019-03-21T21:15:27.631Z,10.90
2019-03-21T21:18:00.961Z,10.80
2019-03-21T21:20:34.187Z,10.80
2019-03-21T21:23:07.405Z,10.70
2019-03-21T21:25:40.588Z,10.70
2019-03-21T21:28:13.807Z,10.70
2019-03-21T21:30:47.774Z,10.60
2019-03-21T21:33:20.963Z,10.60
2019-03-21T21:35:54.167Z,10.60
2019-03-21T21:38:27.456Z,10.50
2019-03-21T21:41:00.707Z,10.50
2019-03-21T21:43:33.919Z,10.40
2019-03-21T21:46:07.116Z,10.40
2019-03-21T21:48:40.314Z,10.30
2019-03-21T21:51:13.486Z,10.30
2019-03-21T21:53:46.670Z,10.20
2019-03-21T21:56:19.861Z,10.20
2019-03-21T21:58:53.054Z,10.10
2019-03-21T22:01:26.230Z,10.10
2019-03-21T22:04:04.599Z,10.10
2019-03-21T22:06:34.331Z,10.10
2019-03-21T22:09:08.291Z,10.10
2019-03-21T22:11:41.494Z,10.00
2019-03-21T22:14:14.684Z,10.00
2019-03-21T22:16:47.876Z,10.00
2019-03-21T22:19:21.084Z,9.90
2019-03-21T22:21:54.276Z,9.90
2019-03-21T22:24:27.486Z,9.80
2019-03-21T22:27:00.662Z,9.80
2019-03-21T22:29:33.875Z,9.70
2019-03-21T22:32:07.143Z,9.70
2019-03-21T22:34:40.334Z,9.70
2019-03-21T22:37:13.506Z,9.60
2019-03-21T22:39:46.709Z,9.60
2019-03-21T22:42:19.929Z,9.60
2019-03-21T22:44:53.119Z,9.50
2019-03-21T22:47:26.307Z,9.50
2019-03-21T22:49:59.523Z,9.50
2019-03-21T22:52:32.701Z,9.40
2019-03-21T22:55:05.975Z,9.40
2019-03-21T22:57:39.176Z,9.30
2019-03-21T23:00:17.068Z,9.30
2019-03-21T23:02:50.253Z,9.20
2019-03-21T23:05:23.550Z,9.20
2019-03-21T23:07:56.760Z,9.20
2019-03-21T23:10:29.965Z,9.10
2019-03-21T23:13:03.157Z,9.10
2019-03-21T23:15:36.355Z,9.10
2019-03-21T23:18:09.540Z,9.00
2019-03-21T23:20:42.733Z,9.00
2019-03-21T23:23:15.926Z,8.90
2019-03-21T23:25:49.122Z,8.90
2019-03-21T23:28:22.369Z,8.80
2019-03-21T23:30:55.611Z,8.80
2019-03-21T23:33:28.782Z,8.80
2019-03-21T23:36:01.976Z,8.70
2019-03-21T23:38:35.156Z,8.70
2019-03-21T23:41:08.348Z,8.70
2019-03-21T23:43:41.519Z,8.60
2019-03-21T23:46:14.918Z,8.60
2019-03-21T23:48:48.099Z,8.60
2019-03-21T23:51:21.308Z,8.60
2019-03-21T23:53:54.481Z,8.60
2019-03-21T23:56:27.699Z,8.60
2019-03-21T23:59:00.885Z,8.60
